This is the latest recevied weather packets stored in our database for station/object 9M4RBN-3. If no packets are shown the sender has not sent any weather packets the latest 10 day(s).
| Time | Temp. | Humidity | Pressure | Rain* | Wind** | Luminosity | Snow |
|---|---|---|---|---|---|---|---|
| 1777567888 | 26.67° C | 62% | 1016.3 hPa | - | - | - | - |
| 1777566988 | 26.11° C | 59% | 1016.4 hPa | - | - | - | - |
| 1777566088 | 25.56° C | 53% | 1016.6 hPa | - | - | - | - |
| 1777565188 | 24.44° C | 46% | 1016.5 hPa | - | - | - | - |
| 1777564288 | 25° C | 46% | 1016.6 hPa | - | - | - | - |
| 1777563388 | 25° C | 46% | 1016.7 hPa | - | - | - | - |
| 1777562488 | 25° C | 47% | 1016.6 hPa | - | - | - | - |
| 1777561588 | 25° C | 46% | 1016.5 hPa | - | - | - | - |
| 1777560688 | 25° C | 46% | 1016.5 hPa | - | - | - | - |
| 1777559789 | 25.56° C | 45% | 1016.5 hPa | - | - | - | - |
| 1777558889 | 25.56° C | 45% | 1016.2 hPa | - | - | - | - |
| 1777557989 | 25.56° C | 46% | 1015.8 hPa | - | - | - | - |
| 1777557089 | 25.56° C | 46% | 1015.8 hPa | - | - | - | - |
| 1777556189 | 25.56° C | 46% | 1015.6 hPa | - | - | - | - |
| 1777555289 | 26.11° C | 47% | 1015.4 hPa | - | - | - | - |
| 1777554389 | 26.11° C | 48% | 1015.2 hPa | - | - | - | - |
| 1777553489 | 26.11° C | 50% | 1015 hPa | - | - | - | - |
| 1777552589 | 26.11° C | 53% | 1015.1 hPa | - | - | - | - |
| 1777551689 | 26.11° C | 58% | 1014.9 hPa | - | - | - | - |
| 1777550789 | 25.56° C | 47% | 1014.6 hPa | - | - | - | - |
| 1777549889 | 26.11° C | 39% | 1014.4 hPa | - | - | - | - |
| 1777548989 | 26.67° C | 44% | 1013.8 hPa | - | - | - | - |
| 1777548089 | 27.22° C | 69% | 1013.8 hPa | - | - | - | - |
| 1777547189 | 26.11° C | 58% | 1013.6 hPa | - | - | - | - |
| 1777546288 | 25.56° C | 38% | 1013.2 hPa | - | - | - | - |
* Rain since midnight (hover to see other rain measurements)
** Current wind speed in m/s (hover to see current wind gust speed)